sensor_id;sensor_type;location;lat;lon;timestamp;P1;durP1;ratioP1;P2;durP2;ratioP2
21800;SDS011;11062;51.164;16.924;2023-07-20T00:00:51;28.92;;;4.45;;
21800;SDS011;11062;51.164;16.924;2023-07-20T00:03:18;58.80;;;7.65;;
21800;SDS011;11062;51.164;16.924;2023-07-20T00:05:50;45.88;;;5.88;;
21800;SDS011;11062;51.164;16.924;2023-07-20T00:08:17;53.97;;;6.93;;
21800;SDS011;11062;51.164;16.924;2023-07-20T00:10:43;50.78;;;6.35;;
21800;SDS011;11062;51.164;16.924;2023-07-20T00:13:10;61.60;;;7.53;;
21800;SDS011;11062;51.164;16.924;2023-07-20T00:15:37;58.20;;;7.40;;
21800;SDS011;11062;51.164;16.924;2023-07-20T00:18:03;54.22;;;5.50;;
21800;SDS011;11062;51.164;16.924;2023-07-20T03:54:35;16.02;;;3.80;;
21800;SDS011;11062;51.164;16.924;2023-07-20T04:26:09;60.58;;;7.05;;
21800;SDS011;11062;51.164;16.924;2023-07-20T04:29:20;27.10;;;5.13;;
21800;SDS011;11062;51.164;16.924;2023-07-20T04:32:41;29.02;;;5.65;;
21800;SDS011;11062;51.164;16.924;2023-07-20T04:39:27;24.60;;;5.03;;
21800;SDS011;11062;51.164;16.924;2023-07-20T04:42:40;9.02;;;3.95;;
21800;SDS011;11062;51.164;16.924;2023-07-20T04:45:26;14.02;;;4.13;;
21800;SDS011;11062;51.164;16.924;2023-07-20T04:48:51;29.23;;;5.80;;
21800;SDS011;11062;51.164;16.924;2023-07-20T04:51:47;31.05;;;5.38;;
21800;SDS011;11062;51.164;16.924;2023-07-20T04:54:18;23.40;;;5.32;;
21800;SDS011;11062;51.164;16.924;2023-07-20T04:56:44;13.80;;;4.32;;
21800;SDS011;11062;51.164;16.924;2023-07-20T04:59:10;36.78;;;5.50;;
21800;SDS011;11062;51.164;16.924;2023-07-20T05:01:39;20.83;;;4.75;;
21800;SDS011;11062;51.164;16.924;2023-07-20T05:04:05;18.23;;;4.45;;
21800;SDS011;11062;51.164;16.924;2023-07-20T05:06:31;18.67;;;4.72;;
21800;SDS011;11062;51.164;16.924;2023-07-20T05:08:57;14.35;;;4.43;;
21800;SDS011;11062;51.164;16.924;2023-07-20T05:11:25;48.88;;;7.63;;
21800;SDS011;11062;51.164;16.924;2023-07-20T05:13:51;15.25;;;4.28;;
21800;SDS011;11062;51.164;16.924;2023-07-20T05:16:20;20.85;;;4.55;;
21800;SDS011;11062;51.164;16.924;2023-07-20T05:18:49;27.10;;;5.53;;
21800;SDS011;11062;51.164;16.924;2023-07-20T05:21:15;22.25;;;4.68;;
21800;SDS011;11062;51.164;16.924;2023-07-20T05:23:43;26.83;;;5.68;;
21800;SDS011;11062;51.164;16.924;2023-07-20T05:26:10;15.55;;;4.50;;
21800;SDS011;11062;51.164;16.924;2023-07-20T05:28:36;17.55;;;4.70;;
21800;SDS011;11062;51.164;16.924;2023-07-20T05:31:02;14.82;;;4.45;;
21800;SDS011;11062;51.164;16.924;2023-07-20T05:33:28;18.00;;;5.05;;
21800;SDS011;11062;51.164;16.924;2023-07-20T05:36:03;27.42;;;4.88;;
21800;SDS011;11062;51.164;16.924;2023-07-20T05:38:29;21.23;;;5.20;;
21800;SDS011;11062;51.164;16.924;2023-07-20T05:40:58;20.60;;;4.95;;
21800;SDS011;11062;51.164;16.924;2023-07-20T05:43:34;20.08;;;5.40;;
21800;SDS011;11062;51.164;16.924;2023-07-20T05:46:02;25.00;;;5.05;;
21800;SDS011;11062;51.164;16.924;2023-07-20T05:48:29;20.50;;;5.10;;
21800;SDS011;11062;51.164;16.924;2023-07-20T05:50:58;53.30;;;7.65;;
21800;SDS011;11062;51.164;16.924;2023-07-20T05:53:24;35.03;;;7.07;;
21800;SDS011;11062;51.164;16.924;2023-07-20T05:55:55;19.88;;;5.10;;
21800;SDS011;11062;51.164;16.924;2023-07-20T05:58:24;27.77;;;5.75;;
21800;SDS011;11062;51.164;16.924;2023-07-20T06:00:55;22.60;;;5.60;;
21800;SDS011;11062;51.164;16.924;2023-07-20T06:03:46;14.18;;;4.25;;
21800;SDS011;11062;51.164;16.924;2023-07-20T06:06:22;21.65;;;4.70;;
21800;SDS011;11062;51.164;16.924;2023-07-20T06:08:50;27.13;;;5.38;;
21800;SDS011;11062;51.164;16.924;2023-07-20T06:11:16;16.83;;;4.20;;
21800;SDS011;11062;51.164;16.924;2023-07-20T06:13:42;9.07;;;3.95;;
21800;SDS011;11062;51.164;16.924;2023-07-20T06:16:08;23.30;;;5.53;;
21800;SDS011;11062;51.164;16.924;2023-07-20T06:18:34;21.17;;;5.28;;
21800;SDS011;11062;51.164;16.924;2023-07-20T06:21:03;17.17;;;4.60;;
21800;SDS011;11062;51.164;16.924;2023-07-20T06:23:34;20.25;;;4.97;;
21800;SDS011;11062;51.164;16.924;2023-07-20T06:26:00;20.20;;;5.00;;
21800;SDS011;11062;51.164;16.924;2023-07-20T06:28:29;30.50;;;5.85;;
21800;SDS011;11062;51.164;16.924;2023-07-20T06:31:00;25.05;;;5.35;;
21800;SDS011;11062;51.164;16.924;2023-07-20T06:33:26;22.23;;;5.75;;
21800;SDS011;11062;51.164;16.924;2023-07-20T06:35:52;19.95;;;5.47;;
21800;SDS011;11062;51.164;16.924;2023-07-20T06:38:21;20.58;;;5.28;;
21800;SDS011;11062;51.164;16.924;2023-07-20T06:40:48;17.42;;;4.95;;
21800;SDS011;11062;51.164;16.924;2023-07-20T06:43:15;17.95;;;4.95;;
21800;SDS011;11062;51.164;16.924;2023-07-20T06:45:41;22.00;;;5.00;;
21800;SDS011;11062;51.164;16.924;2023-07-20T06:48:10;12.30;;;4.32;;
21800;SDS011;11062;51.164;16.924;2023-07-20T06:50:36;12.30;;;4.47;;
21800;SDS011;11062;51.164;16.924;2023-07-20T06:53:02;19.77;;;5.32;;
21800;SDS011;11062;51.164;16.924;2023-07-20T06:55:33;26.92;;;5.90;;
21800;SDS011;11062;51.164;16.924;2023-07-20T06:58:01;17.83;;;4.82;;
21800;SDS011;11062;51.164;16.924;2023-07-20T07:00:29;32.58;;;6.30;;
21800;SDS011;11062;51.164;16.924;2023-07-20T07:02:58;29.10;;;6.00;;
21800;SDS011;11062;51.164;16.924;2023-07-20T07:05:23;25.50;;;5.40;;
21800;SDS011;11062;51.164;16.924;2023-07-20T07:07:49;31.40;;;6.20;;
21800;SDS011;11062;51.164;16.924;2023-07-20T07:10:15;25.13;;;4.88;;
21800;SDS011;11062;51.164;16.924;2023-07-20T07:12:41;17.40;;;4.50;;
21800;SDS011;11062;51.164;16.924;2023-07-20T07:15:09;7.60;;;3.90;;
21800;SDS011;11062;51.164;16.924;2023-07-20T07:17:36;19.45;;;4.95;;
21800;SDS011;11062;51.164;16.924;2023-07-20T07:20:05;12.35;;;3.70;;
21800;SDS011;11062;51.164;16.924;2023-07-20T07:22:34;9.48;;;4.32;;
21800;SDS011;11062;51.164;16.924;2023-07-20T07:25:00;16.42;;;3.85;;
21800;SDS011;11062;51.164;16.924;2023-07-20T07:27:28;17.75;;;4.70;;
21800;SDS011;11062;51.164;16.924;2023-07-20T07:29:54;20.98;;;4.88;;
21800;SDS011;11062;51.164;16.924;2023-07-20T07:32:23;15.13;;;4.47;;
21800;SDS011;11062;51.164;16.924;2023-07-20T07:34:49;24.65;;;5.25;;
21800;SDS011;11062;51.164;16.924;2023-07-20T07:37:15;27.73;;;5.70;;
21800;SDS011;11062;51.164;16.924;2023-07-20T07:39:45;26.90;;;5.82;;
21800;SDS011;11062;51.164;16.924;2023-07-20T07:42:11;9.82;;;4.68;;
21800;SDS011;11062;51.164;16.924;2023-07-20T07:44:38;18.50;;;4.95;;
21800;SDS011;11062;51.164;16.924;2023-07-20T07:47:04;16.77;;;4.18;;
21800;SDS011;11062;51.164;16.924;2023-07-20T07:49:30;30.70;;;5.72;;
21800;SDS011;11062;51.164;16.924;2023-07-20T07:51:59;17.42;;;4.60;;
21800;SDS011;11062;51.164;16.924;2023-07-20T07:54:27;15.88;;;4.47;;
21800;SDS011;11062;51.164;16.924;2023-07-20T07:56:53;18.73;;;4.57;;
21800;SDS011;11062;51.164;16.924;2023-07-20T07:59:22;10.27;;;4.18;;
21800;SDS011;11062;51.164;16.924;2023-07-20T08:01:48;16.23;;;4.55;;
21800;SDS011;11062;51.164;16.924;2023-07-20T08:04:14;13.30;;;4.65;;
21800;SDS011;11062;51.164;16.924;2023-07-20T08:06:40;7.38;;;3.30;;
21800;SDS011;11062;51.164;16.924;2023-07-20T08:09:06;24.92;;;4.82;;
21800;SDS011;11062;51.164;16.924;2023-07-20T08:11:32;16.45;;;4.20;;
21800;SDS011;11062;51.164;16.924;2023-07-20T08:14:00;10.63;;;4.30;;
21800;SDS011;11062;51.164;16.924;2023-07-20T08:16:31;12.45;;;3.45;;
21800;SDS011;11062;51.164;16.924;2023-07-20T08:18:57;34.17;;;4.82;;
21800;SDS011;11062;51.164;16.924;2023-07-20T08:21:27;11.00;;;2.72;;
21800;SDS011;11062;51.164;16.924;2023-07-20T08:24:13;42.90;;;5.53;;
21800;SDS011;11062;51.164;16.924;2023-07-20T08:26:41;34.53;;;5.15;;
21800;SDS011;11062;51.164;16.924;2023-07-20T08:29:08;19.80;;;3.97;;
21800;SDS011;11062;51.164;16.924;2023-07-20T08:31:34;12.18;;;2.90;;
21800;SDS011;11062;51.164;16.924;2023-07-20T08:34:05;12.77;;;3.50;;
21800;SDS011;11062;51.164;16.924;2023-07-20T08:36:37;30.75;;;4.53;;
21800;SDS011;11062;51.164;16.924;2023-07-20T08:39:03;20.50;;;3.78;;
21800;SDS011;11062;51.164;16.924;2023-07-20T08:41:33;10.13;;;2.88;;
21800;SDS011;11062;51.164;16.924;2023-07-20T08:44:00;15.18;;;3.05;;
21800;SDS011;11062;51.164;16.924;2023-07-20T08:46:32;20.40;;;3.58;;
21800;SDS011;11062;51.164;16.924;2023-07-20T08:49:00;11.35;;;2.60;;
21800;SDS011;11062;51.164;16.924;2023-07-20T08:51:35;12.10;;;3.20;;
21800;SDS011;11062;51.164;16.924;2023-07-20T08:54:01;13.40;;;3.03;;
21800;SDS011;11062;51.164;16.924;2023-07-20T08:56:27;29.55;;;4.13;;
21800;SDS011;11062;51.164;16.924;2023-07-20T08:58:59;32.72;;;4.90;;
21800;SDS011;11062;51.164;16.924;2023-07-20T09:01:26;16.55;;;3.00;;
21800;SDS011;11062;51.164;16.924;2023-07-20T09:03:53;6.55;;;1.98;;
21800;SDS011;11062;51.164;16.924;2023-07-20T09:06:19;8.02;;;2.40;;
21800;SDS011;11062;51.164;16.924;2023-07-20T09:08:45;15.48;;;3.45;;
21800;SDS011;11062;51.164;16.924;2023-07-20T09:11:11;9.05;;;2.28;;
21800;SDS011;11062;51.164;16.924;2023-07-20T09:13:40;4.32;;;1.77;;
21800;SDS011;11062;51.164;16.924;2023-07-20T09:16:08;20.40;;;3.53;;
21800;SDS011;11062;51.164;16.924;2023-07-20T09:18:38;14.43;;;3.15;;
21800;SDS011;11062;51.164;16.924;2023-07-20T09:21:04;19.25;;;3.90;;
21800;SDS011;11062;51.164;16.924;2023-07-20T09:23:32;12.35;;;2.95;;
21800;SDS011;11062;51.164;16.924;2023-07-20T09:26:10;7.78;;;2.50;;
21800;SDS011;11062;51.164;16.924;2023-07-20T09:28:44;14.48;;;2.47;;
21800;SDS011;11062;51.164;16.924;2023-07-20T09:31:20;24.33;;;4.10;;
21800;SDS011;11062;51.164;16.924;2023-07-20T09:33:49;32.72;;;3.95;;
21800;SDS011;11062;51.164;16.924;2023-07-20T09:36:18;8.75;;;2.40;;
21800;SDS011;11062;51.164;16.924;2023-07-20T09:38:47;27.35;;;4.05;;
21800;SDS011;11062;51.164;16.924;2023-07-20T09:41:15;7.43;;;1.95;;
21800;SDS011;11062;51.164;16.924;2023-07-20T09:43:46;5.40;;;2.00;;
21800;SDS011;11062;51.164;16.924;2023-07-20T09:46:14;11.30;;;2.53;;
21800;SDS011;11062;51.164;16.924;2023-07-20T09:48:42;7.95;;;2.15;;
21800;SDS011;11062;51.164;16.924;2023-07-20T09:51:23;14.07;;;2.50;;
21800;SDS011;11062;51.164;16.924;2023-07-20T09:53:51;32.90;;;4.85;;
21800;SDS011;11062;51.164;16.924;2023-07-20T09:56:21;10.90;;;2.78;;
21800;SDS011;11062;51.164;16.924;2023-07-20T09:58:49;11.02;;;2.85;;
21800;SDS011;11062;51.164;16.924;2023-07-20T10:01:18;8.43;;;2.42;;
21800;SDS011;11062;51.164;16.924;2023-07-20T10:03:47;11.57;;;3.15;;
21800;SDS011;11062;51.164;16.924;2023-07-20T10:06:45;11.25;;;3.10;;
21800;SDS011;11062;51.164;16.924;2023-07-20T10:09:33;20.70;;;3.15;;
21800;SDS011;11062;51.164;16.924;2023-07-20T10:12:02;22.13;;;3.42;;
21800;SDS011;11062;51.164;16.924;2023-07-20T10:14:31;26.80;;;4.00;;
21800;SDS011;11062;51.164;16.924;2023-07-20T10:17:00;18.92;;;2.67;;
21800;SDS011;11062;51.164;16.924;2023-07-20T10:19:34;17.83;;;2.92;;
21800;SDS011;11062;51.164;16.924;2023-07-20T10:25:16;17.23;;;3.10;;
21800;SDS011;11062;51.164;16.924;2023-07-20T10:28:24;7.30;;;2.35;;
21800;SDS011;11062;51.164;16.924;2023-07-20T10:31:22;6.30;;;2.30;;
21800;SDS011;11062;51.164;16.924;2023-07-20T10:33:56;4.70;;;2.10;;
21800;SDS011;11062;51.164;16.924;2023-07-20T10:36:26;15.60;;;3.58;;
21800;SDS011;11062;51.164;16.924;2023-07-20T10:38:57;5.70;;;2.20;;
21800;SDS011;11062;51.164;16.924;2023-07-20T10:41:39;10.20;;;2.45;;
21800;SDS011;11062;51.164;16.924;2023-07-20T10:44:09;8.23;;;2.38;;
21800;SDS011;11062;51.164;16.924;2023-07-20T10:46:44;21.35;;;3.65;;
21800;SDS011;11062;51.164;16.924;2023-07-20T10:51:41;11.05;;;2.25;;
21800;SDS011;11062;51.164;16.924;2023-07-20T11:00:13;5.30;;;2.55;;
21800;SDS011;11062;51.164;16.924;2023-07-20T11:02:49;15.02;;;3.00;;
21800;SDS011;11062;51.164;16.924;2023-07-20T11:05:42;19.13;;;2.78;;
21800;SDS011;11062;51.164;16.924;2023-07-20T11:08:16;13.88;;;2.63;;
21800;SDS011;11062;51.164;16.924;2023-07-20T11:11:21;12.02;;;2.58;;
21800;SDS011;11062;51.164;16.924;2023-07-20T11:14:01;26.00;;;3.95;;
21800;SDS011;11062;51.164;16.924;2023-07-20T11:19:15;22.13;;;3.60;;
21800;SDS011;11062;51.164;16.924;2023-07-20T11:21:54;13.52;;;3.03;;
21800;SDS011;11062;51.164;16.924;2023-07-20T11:24:25;22.23;;;3.63;;
21800;SDS011;11062;51.164;16.924;2023-07-20T11:26:53;10.43;;;2.88;;
21800;SDS011;11062;51.164;16.924;2023-07-20T11:29:20;9.75;;;3.17;;
21800;SDS011;11062;51.164;16.924;2023-07-20T11:32:34;11.43;;;2.50;;
21800;SDS011;11062;51.164;16.924;2023-07-20T11:36:04;3.85;;;2.00;;
21800;SDS011;11062;51.164;16.924;2023-07-20T11:39:04;23.17;;;3.22;;
21800;SDS011;11062;51.164;16.924;2023-07-20T11:41:37;8.70;;;3.05;;
21800;SDS011;11062;51.164;16.924;2023-07-20T11:47:31;15.43;;;3.85;;
21800;SDS011;11062;51.164;16.924;2023-07-20T11:50:02;13.93;;;3.38;;
21800;SDS011;11062;51.164;16.924;2023-07-20T11:52:29;11.35;;;2.83;;
21800;SDS011;11062;51.164;16.924;2023-07-20T11:55:13;17.58;;;3.75;;
21800;SDS011;11062;51.164;16.924;2023-07-20T11:58:09;21.20;;;3.53;;
21800;SDS011;11062;51.164;16.924;2023-07-20T12:00:38;6.55;;;2.80;;
21800;SDS011;11062;51.164;16.924;2023-07-20T12:03:11;29.65;;;4.45;;
21800;SDS011;11062;51.164;16.924;2023-07-20T12:05:48;10.65;;;3.95;;
21800;SDS011;11062;51.164;16.924;2023-07-20T12:08:27;7.07;;;2.63;;
21800;SDS011;11062;51.164;16.924;2023-07-20T12:10:56;11.38;;;3.10;;
21800;SDS011;11062;51.164;16.924;2023-07-20T12:13:57;26.45;;;4.30;;
21800;SDS011;11062;51.164;16.924;2023-07-20T12:16:44;14.63;;;3.63;;
21800;SDS011;11062;51.164;16.924;2023-07-20T12:19:41;8.07;;;3.08;;
21800;SDS011;11062;51.164;16.924;2023-07-20T12:22:14;6.22;;;2.80;;
21800;SDS011;11062;51.164;16.924;2023-07-20T12:25:19;6.07;;;2.92;;
21800;SDS011;11062;51.164;16.924;2023-07-20T12:27:56;15.10;;;3.58;;
21800;SDS011;11062;51.164;16.924;2023-07-20T12:30:47;19.27;;;4.45;;
21800;SDS011;11062;51.164;16.924;2023-07-20T12:33:42;9.20;;;2.75;;
21800;SDS011;11062;51.164;16.924;2023-07-20T12:36:15;22.83;;;5.30;;
21800;SDS011;11062;51.164;16.924;2023-07-20T12:39:12;12.98;;;3.50;;
21800;SDS011;11062;51.164;16.924;2023-07-20T12:42:03;8.23;;;2.65;;
21800;SDS011;11062;51.164;16.924;2023-07-20T12:44:49;10.43;;;2.80;;
21800;SDS011;11062;51.164;16.924;2023-07-20T12:47:41;9.73;;;3.47;;
21800;SDS011;11062;51.164;16.924;2023-07-20T12:50:14;13.13;;;3.45;;
21800;SDS011;11062;51.164;16.924;2023-07-20T12:52:47;28.55;;;4.70;;
21800;SDS011;11062;51.164;16.924;2023-07-20T12:55:29;14.50;;;3.35;;
21800;SDS011;11062;51.164;16.924;2023-07-20T12:58:31;19.60;;;3.72;;
21800;SDS011;11062;51.164;16.924;2023-07-20T13:01:47;14.77;;;3.55;;
21800;SDS011;11062;51.164;16.924;2023-07-20T13:04:27;11.85;;;3.15;;
21800;SDS011;11062;51.164;16.924;2023-07-20T13:07:44;2.88;;;2.20;;
21800;SDS011;11062;51.164;16.924;2023-07-20T13:21:40;1.50;;;1.40;;
21800;SDS011;11062;51.164;16.924;2023-07-20T13:24:06;4.47;;;1.25;;
21800;SDS011;11062;51.164;16.924;2023-07-20T13:26:36;2.00;;;1.55;;
21800;SDS011;11062;51.164;16.924;2023-07-20T13:29:06;6.18;;;2.00;;
21800;SDS011;11062;51.164;16.924;2023-07-20T13:31:32;20.05;;;3.13;;
21800;SDS011;11062;51.164;16.924;2023-07-20T13:33:58;14.20;;;2.42;;
21800;SDS011;11062;51.164;16.924;2023-07-20T13:36:24;9.38;;;2.53;;
21800;SDS011;11062;51.164;16.924;2023-07-20T13:38:50;9.95;;;2.40;;
21800;SDS011;11062;51.164;16.924;2023-07-20T13:41:21;25.17;;;4.32;;
21800;SDS011;11062;51.164;16.924;2023-07-20T13:43:47;2.78;;;1.15;;
21800;SDS011;11062;51.164;16.924;2023-07-20T13:46:19;2.88;;;1.77;;
21800;SDS011;11062;51.164;16.924;2023-07-20T13:48:51;1.17;;;1.08;;
21800;SDS011;11062;51.164;16.924;2023-07-20T13:51:19;2.28;;;1.27;;
21800;SDS011;11062;51.164;16.924;2023-07-20T13:53:48;10.88;;;2.53;;
21800;SDS011;11062;51.164;16.924;2023-07-20T13:56:14;2.08;;;1.48;;
21800;SDS011;11062;51.164;16.924;2023-07-20T13:58:46;6.35;;;1.95;;
21800;SDS011;11062;51.164;16.924;2023-07-20T14:01:12;19.40;;;3.30;;
21800;SDS011;11062;51.164;16.924;2023-07-20T14:03:45;7.40;;;2.17;;
21800;SDS011;11062;51.164;16.924;2023-07-20T14:06:13;16.15;;;3.15;;
21800;SDS011;11062;51.164;16.924;2023-07-20T14:08:45;8.23;;;2.28;;
21800;SDS011;11062;51.164;16.924;2023-07-20T14:11:12;13.80;;;3.13;;
21800;SDS011;11062;51.164;16.924;2023-07-20T14:13:38;8.77;;;2.60;;
21800;SDS011;11062;51.164;16.924;2023-07-20T14:16:05;2.97;;;1.40;;
21800;SDS011;11062;51.164;16.924;2023-07-20T14:18:31;2.33;;;1.30;;
21800;SDS011;11062;51.164;16.924;2023-07-20T14:20:57;3.92;;;1.83;;
21800;SDS011;11062;51.164;16.924;2023-07-20T14:23:28;13.80;;;4.40;;
21800;SDS011;11062;51.164;16.924;2023-07-20T14:25:54;10.50;;;3.28;;
21800;SDS011;11062;51.164;16.924;2023-07-20T14:28:23;2.08;;;1.65;;
21800;SDS011;11062;51.164;16.924;2023-07-20T14:30:49;6.00;;;3.13;;
21800;SDS011;11062;51.164;16.924;2023-07-20T14:33:21;4.60;;;2.10;;
21800;SDS011;11062;51.164;16.924;2023-07-20T14:35:47;7.75;;;3.05;;
21800;SDS011;11062;51.164;16.924;2023-07-20T14:38:13;7.95;;;3.33;;
21800;SDS011;11062;51.164;16.924;2023-07-20T14:40:44;2.25;;;1.48;;
21800;SDS011;11062;51.164;16.924;2023-07-20T14:43:12;5.00;;;1.88;;
21800;SDS011;11062;51.164;16.924;2023-07-20T14:45:41;6.97;;;2.80;;
21800;SDS011;11062;51.164;16.924;2023-07-20T14:48:07;3.17;;;1.80;;
21800;SDS011;11062;51.164;16.924;2023-07-20T14:50:38;12.30;;;3.45;;
21800;SDS011;11062;51.164;16.924;2023-07-20T14:53:05;4.10;;;1.90;;
21800;SDS011;11062;51.164;16.924;2023-07-20T14:55:30;3.15;;;1.58;;
21800;SDS011;11062;51.164;16.924;2023-07-20T14:57:56;5.65;;;2.35;;
21800;SDS011;11062;51.164;16.924;2023-07-20T15:00:30;5.05;;;1.95;;
21800;SDS011;11062;51.164;16.924;2023-07-20T15:02:56;6.95;;;2.17;;
21800;SDS011;11062;51.164;16.924;2023-07-20T15:05:22;11.43;;;2.85;;
21800;SDS011;11062;51.164;16.924;2023-07-20T15:08:01;2.75;;;1.83;;
21800;SDS011;11062;51.164;16.924;2023-07-20T15:10:35;6.20;;;2.50;;
21800;SDS011;11062;51.164;16.924;2023-07-20T15:13:01;9.00;;;2.95;;
21800;SDS011;11062;51.164;16.924;2023-07-20T15:15:30;1.20;;;1.10;;
21800;SDS011;11062;51.164;16.924;2023-07-20T15:17:56;5.93;;;2.70;;
21800;SDS011;11062;51.164;16.924;2023-07-20T15:20:25;13.60;;;3.05;;
21800;SDS011;11062;51.164;16.924;2023-07-20T15:22:51;7.13;;;2.05;;
21800;SDS011;11062;51.164;16.924;2023-07-20T15:25:17;13.90;;;2.85;;
21800;SDS011;11062;51.164;16.924;2023-07-20T15:27:43;5.25;;;1.83;;
21800;SDS011;11062;51.164;16.924;2023-07-20T15:30:12;1.45;;;1.00;;
21800;SDS011;11062;51.164;16.924;2023-07-20T15:32:39;22.90;;;3.92;;
21800;SDS011;11062;51.164;16.924;2023-07-20T15:35:06;2.13;;;1.60;;
21800;SDS011;11062;51.164;16.924;2023-07-20T15:37:33;3.92;;;1.67;;
21800;SDS011;11062;51.164;16.924;2023-07-20T15:40:01;11.93;;;2.83;;
21800;SDS011;11062;51.164;16.924;2023-07-20T15:42:31;2.63;;;1.40;;
21800;SDS011;11062;51.164;16.924;2023-07-20T15:45:00;6.10;;;2.15;;
21800;SDS011;11062;51.164;16.924;2023-07-20T15:47:28;16.23;;;3.17;;
21800;SDS011;11062;51.164;16.924;2023-07-20T15:49:54;2.17;;;1.30;;
21800;SDS011;11062;51.164;16.924;2023-07-20T15:52:20;3.95;;;1.33;;
21800;SDS011;11062;51.164;16.924;2023-07-20T15:54:51;7.03;;;2.38;;
21800;SDS011;11062;51.164;16.924;2023-07-20T15:57:21;5.95;;;1.90;;
21800;SDS011;11062;51.164;16.924;2023-07-20T15:59:49;3.55;;;1.90;;
21800;SDS011;11062;51.164;16.924;2023-07-20T16:02:18;3.60;;;1.80;;
21800;SDS011;11062;51.164;16.924;2023-07-20T16:04:47;3.10;;;1.63;;
21800;SDS011;11062;51.164;16.924;2023-07-20T16:07:15;4.47;;;1.88;;
21800;SDS011;11062;51.164;16.924;2023-07-20T16:09:40;4.07;;;2.20;;
21800;SDS011;11062;51.164;16.924;2023-07-20T16:12:06;4.13;;;2.00;;
21800;SDS011;11062;51.164;16.924;2023-07-20T16:14:36;1.20;;;1.10;;
21800;SDS011;11062;51.164;16.924;2023-07-20T16:17:02;3.42;;;1.80;;
21800;SDS011;11062;51.164;16.924;2023-07-20T16:19:29;8.88;;;2.05;;
21800;SDS011;11062;51.164;16.924;2023-07-20T16:21:55;2.20;;;1.33;;
21800;SDS011;11062;51.164;16.924;2023-07-20T16:24:21;9.45;;;1.73;;
21800;SDS011;11062;51.164;16.924;2023-07-20T16:26:48;18.83;;;3.50;;
21800;SDS011;11062;51.164;16.924;2023-07-20T16:29:16;13.30;;;3.05;;
21800;SDS011;11062;51.164;16.924;2023-07-20T16:31:45;7.20;;;2.25;;
21800;SDS011;11062;51.164;16.924;2023-07-20T16:34:14;10.38;;;2.33;;
21800;SDS011;11062;51.164;16.924;2023-07-20T16:36:40;2.08;;;1.10;;
21800;SDS011;11062;51.164;16.924;2023-07-20T16:39:09;2.50;;;1.10;;
21800;SDS011;11062;51.164;16.924;2023-07-20T16:41:35;3.00;;;1.60;;
21800;SDS011;11062;51.164;16.924;2023-07-20T16:44:01;1.55;;;1.08;;
21800;SDS011;11062;51.164;16.924;2023-07-20T16:46:27;2.70;;;1.80;;
21800;SDS011;11062;51.164;16.924;2023-07-20T16:48:52;4.85;;;1.23;;
21800;SDS011;11062;51.164;16.924;2023-07-20T16:51:18;2.78;;;1.67;;
21800;SDS011;11062;51.164;16.924;2023-07-20T16:53:44;13.35;;;3.20;;
21800;SDS011;11062;51.164;16.924;2023-07-20T16:56:13;11.35;;;2.78;;
21800;SDS011;11062;51.164;16.924;2023-07-20T16:58:40;4.53;;;1.70;;
21800;SDS011;11062;51.164;16.924;2023-07-20T17:01:06;3.08;;;1.00;;
21800;SDS011;11062;51.164;16.924;2023-07-20T17:03:32;5.13;;;1.73;;
21800;SDS011;11062;51.164;16.924;2023-07-20T17:06:02;7.88;;;3.00;;
21800;SDS011;11062;51.164;16.924;2023-07-20T17:08:30;1.77;;;1.45;;
21800;SDS011;11062;51.164;16.924;2023-07-20T17:11:05;4.75;;;1.25;;
21800;SDS011;11062;51.164;16.924;2023-07-20T17:13:34;8.07;;;1.80;;
21800;SDS011;11062;51.164;16.924;2023-07-20T17:16:00;2.72;;;1.00;;
21800;SDS011;11062;51.164;16.924;2023-07-20T17:18:29;2.80;;;1.00;;
21800;SDS011;11062;51.164;16.924;2023-07-20T17:20:55;2.78;;;1.33;;
21800;SDS011;11062;51.164;16.924;2023-07-20T17:23:30;2.22;;;1.15;;
21800;SDS011;11062;51.164;16.924;2023-07-20T17:25:57;2.13;;;1.10;;
21800;SDS011;11062;51.164;16.924;2023-07-20T17:28:23;1.40;;;1.20;;
21800;SDS011;11062;51.164;16.924;2023-07-20T17:31:04;3.08;;;1.77;;
21800;SDS011;11062;51.164;16.924;2023-07-20T17:33:33;8.18;;;1.20;;
21800;SDS011;11062;51.164;16.924;2023-07-20T17:36:05;1.17;;;1.00;;
21800;SDS011;11062;51.164;16.924;2023-07-20T17:38:34;1.23;;;0.95;;
21800;SDS011;11062;51.164;16.924;2023-07-20T17:41:03;2.80;;;1.17;;
21800;SDS011;11062;51.164;16.924;2023-07-20T17:43:30;7.78;;;1.70;;
21800;SDS011;11062;51.164;16.924;2023-07-20T17:45:59;1.00;;;0.90;;
21800;SDS011;11062;51.164;16.924;2023-07-20T17:48:35;1.25;;;1.15;;
21800;SDS011;11062;51.164;16.924;2023-07-20T17:51:06;2.90;;;1.40;;
21800;SDS011;11062;51.164;16.924;2023-07-20T17:53:35;1.38;;;0.90;;
21800;SDS011;11062;51.164;16.924;2023-07-20T17:56:01;1.38;;;1.13;;
21800;SDS011;11062;51.164;16.924;2023-07-20T17:58:27;1.27;;;1.17;;
21800;SDS011;11062;51.164;16.924;2023-07-20T18:01:00;8.38;;;1.73;;
21800;SDS011;11062;51.164;16.924;2023-07-20T18:03:26;20.35;;;2.80;;
21800;SDS011;11062;51.164;16.924;2023-07-20T18:05:53;4.63;;;1.10;;
21800;SDS011;11062;51.164;16.924;2023-07-20T18:08:19;2.78;;;1.10;;
21800;SDS011;11062;51.164;16.924;2023-07-20T18:10:48;2.92;;;0.90;;
21800;SDS011;11062;51.164;16.924;2023-07-20T18:13:23;5.38;;;1.92;;
21800;SDS011;11062;51.164;16.924;2023-07-20T18:15:55;5.93;;;1.90;;
21800;SDS011;11062;51.164;16.924;2023-07-20T18:18:24;5.13;;;1.60;;
21800;SDS011;11062;51.164;16.924;2023-07-20T18:20:56;5.10;;;1.45;;
21800;SDS011;11062;51.164;16.924;2023-07-20T18:23:26;13.77;;;2.70;;
21800;SDS011;11062;51.164;16.924;2023-07-20T18:25:58;9.63;;;2.30;;
21800;SDS011;11062;51.164;16.924;2023-07-20T18:28:30;6.55;;;2.05;;
21800;SDS011;11062;51.164;16.924;2023-07-20T18:31:04;12.80;;;2.20;;
21800;SDS011;11062;51.164;16.924;2023-07-20T18:33:33;6.97;;;2.25;;
21800;SDS011;11062;51.164;16.924;2023-07-20T18:36:06;1.05;;;0.95;;
21800;SDS011;11062;51.164;16.924;2023-07-20T18:38:32;2.80;;;1.48;;
21800;SDS011;11062;51.164;16.924;2023-07-20T18:41:01;5.78;;;1.58;;
21800;SDS011;11062;51.164;16.924;2023-07-20T18:43:30;10.73;;;2.92;;
21800;SDS011;11062;51.164;16.924;2023-07-20T18:45:59;6.28;;;1.67;;
21800;SDS011;11062;51.164;16.924;2023-07-20T18:48:25;8.68;;;2.22;;
21800;SDS011;11062;51.164;16.924;2023-07-20T18:51:00;1.17;;;0.90;;
21800;SDS011;11062;51.164;16.924;2023-07-20T18:53:29;3.67;;;1.35;;
21800;SDS011;11062;51.164;16.924;2023-07-20T18:56:01;7.20;;;2.10;;
21800;SDS011;11062;51.164;16.924;2023-07-20T18:58:31;11.07;;;2.60;;
21800;SDS011;11062;51.164;16.924;2023-07-20T19:01:00;8.65;;;2.30;;
21800;SDS011;11062;51.164;16.924;2023-07-20T19:03:28;5.47;;;1.83;;
21800;SDS011;11062;51.164;16.924;2023-07-20T19:06:00;6.95;;;2.58;;
21800;SDS011;11062;51.164;16.924;2023-07-20T19:08:27;3.63;;;1.83;;
21800;SDS011;11062;51.164;16.924;2023-07-20T19:10:59;6.47;;;1.95;;
21800;SDS011;11062;51.164;16.924;2023-07-20T19:13:33;1.70;;;1.30;;
21800;SDS011;11062;51.164;16.924;2023-07-20T19:16:00;14.15;;;3.00;;
21800;SDS011;11062;51.164;16.924;2023-07-20T19:18:29;5.25;;;1.75;;
21800;SDS011;11062;51.164;16.924;2023-07-20T19:20:58;5.15;;;1.90;;
21800;SDS011;11062;51.164;16.924;2023-07-20T19:23:25;1.73;;;1.35;;
21800;SDS011;11062;51.164;16.924;2023-07-20T19:25:51;2.95;;;2.00;;
21800;SDS011;11062;51.164;16.924;2023-07-20T19:28:20;3.97;;;1.50;;
21800;SDS011;11062;51.164;16.924;2023-07-20T19:30:47;3.35;;;1.58;;